Bookmark and Share
Track history (hours):
 

Seago Piraeus

Last reported at 2014-Apr-25 04:33 UTC. Time now 2014-Apr-25 05:46 UTC.
Position N 50°53' E 001°15'.

Length 294 m; draft 12.5 m.

Type: Ship (hazmat cat A). MMSI: 219117000.

NotesDate/timePositionNaut miles runAvg speedWind from/ knotsBaromVisibWave heightAir tempDewpointWater temp
2014-Apr-25 04:33N 50°53' E 001°15'1515.2
2014-Apr-25 03:33N 51°05' E 001°31'1515.4
2014-Apr-25 02:33N 51°16' E 001°48'1313.0
2014-Apr-25 01:34N 51°25' E 002°03'1313.0
2014-Apr-25 00:33N 51°22' E 002°23'1313.1
2014-Apr-24 23:33N 51°22' E 002°44'1414.1
2014-Apr-24 22:33N 51°24' E 003°07'1717.4
2014-Apr-24 21:33N 51°26' E 003°34'9 8.8
2014-Apr-24 20:34N 51°22' E 003°47'1010.0
2014-Apr-24 19:34N 51°24' E 004°02'10 9.6
2014-Apr-24 18:34N 51°20' E 004°16'2 2.3
2014-Apr-24 17:33N 51°18' E 004°15'0 0.0
2014-Apr-24 16:33N 51°18' E 004°15'0 0.0
2014-Apr-24 15:33N 51°18' E 004°15'0 0.0
2014-Apr-24 14:33N 51°18' E 004°15'0 0.0
2014-Apr-24 13:33N 51°18' E 004°15'0 0.0
2014-Apr-24 12:33N 51°18' E 004°15'0 0.0
2014-Apr-24 11:33N 51°18' E 004°15'0 0.0
2014-Apr-24 10:33N 51°18' E 004°15'0 0.0
2014-Apr-24 09:33N 51°18' E 004°15'0 0.0
2014-Apr-24 08:33N 51°18' E 004°15'0 0.0
2014-Apr-24 07:33N 51°18' E 004°15'0 0.0
2014-Apr-24 06:33N 51°18' E 004°15'0 0.0
2014-Apr-24 05:33N 51°18' E 004°15'0 0.0
2014-Apr-24 04:24N 51°18' E 004°15'0 0.0
2014-Apr-24 03:33N 51°18' E 004°15'0 0.0
2014-Apr-24 02:33N 51°18' E 004°15'1 1.2
2014-Apr-24 01:34N 51°19' E 004°16'8 8.1
2014-Apr-24 00:33N 51°22' E 004°05'9 8.5
2014-Apr-23 23:34N 51°21' E 003°51'1211.9
2014-Apr-23 22:33N 51°25' E 003°34'1717.2
2014-Apr-23 21:33N 51°24' E 003°06'1414.3
2014-Apr-23 20:33N 51°38' E 003°11'1313.2
2014-Apr-23 19:33N 51°51' E 003°17'1313.0
2014-Apr-23 18:33N 52°03' E 003°20'2211.2
2014-Apr-23 16:33N 52°25' E 003°28'1414.3
2014-Apr-23 15:32N 52°39' E 003°33'27 6.1
2014-Apr-23 11:11N 53°03' E 003°53'2 1.6
2014-Apr-23 10:16N 53°02' E 003°52'2810.4
2014-Apr-23 07:31N 53°19' E 004°30'1513.4
2014-Apr-23 06:25N 53°30' E 004°46'1314.8
2014-Apr-23 05:34N 53°34' E 005°06'1414.4
2014-Apr-23 04:33N 53°39' E 005°29'1413.7
2014-Apr-23 03:34N 53°43' E 005°51'1312.9
2014-Apr-23 02:34N 53°47' E 006°12'1312.5
2014-Apr-23 01:33N 53°51' E 006°32'1312.6
2014-Apr-23 00:34N 53°54' E 006°53'1313.0
2014-Apr-22 23:33N 53°56' E 007°15'1413.9
2014-Apr-22 22:34N 53°59' E 007°38'1312.6
2014-Apr-22 21:34N 53°52' E 007°55'2019.7
2014-Apr-22 20:34N 53°40' E 008°22'7 6.7
2014-Apr-22 19:31N 53°36' E 008°31'0 0.0
2014-Apr-22 18:32N 53°36' E 008°31'0 0.0
2014-Apr-22 17:32N 53°36' E 008°31'0 0.0
2014-Apr-22 16:32N 53°36' E 008°31'0 0.0
2014-Apr-22 15:32N 53°36' E 008°31'0 0.0
2014-Apr-22 14:32N 53°36' E 008°31'0 0.0
2014-Apr-22 13:32N 53°36' E 008°31'0 0.0
2014-Apr-22 12:32N 53°36' E 008°31'0 0.0
2014-Apr-22 11:32N 53°36' E 008°31'0 0.0
2014-Apr-22 10:32N 53°36' E 008°31'0 0.0
2014-Apr-22 09:32N 53°36' E 008°31'0 0.0
2014-Apr-22 08:32N 53°36' E 008°31'0 0.0
2014-Apr-22 07:31N 53°36' E 008°31'0 0.0
2014-Apr-22 06:31N 53°36' E 008°31'0 0.0
2014-Apr-22 05:31N 53°36' E 008°31'0 0.0
2014-Apr-22 04:31N 53°36' E 008°31'0 0.0
2014-Apr-22 03:31N 53°36' E 008°31'0 0.0
2014-Apr-22 02:31N 53°36' E 008°31'0 0.0
2014-Apr-22 01:32N 53°36' E 008°31'0 0.0
2014-Apr-22 00:32N 53°36' E 008°31'0 0.0
2014-Apr-21 23:32N 53°36' E 008°31'0 0.0
2014-Apr-21 22:32N 53°36' E 008°31'0 0.0
2014-Apr-21 21:32N 53°36' E 008°31'0 0.0
2014-Apr-21 20:32N 53°36' E 008°31'0 0.0
2014-Apr-21 19:32N 53°36' E 008°31'0 0.0
2014-Apr-21 18:32N 53°36' E 008°31'0 0.0
2014-Apr-21 17:32N 53°36' E 008°31'0 0.0
2014-Apr-21 16:32N 53°36' E 008°31'0 0.0
2014-Apr-21 15:32N 53°36' E 008°31'0 0.0
2014-Apr-21 14:32N 53°36' E 008°31'0 0.0
2014-Apr-21 13:32N 53°36' E 008°31'0 0.0
2014-Apr-21 12:32N 53°36' E 008°31'0 0.0
2014-Apr-21 11:32N 53°36' E 008°31'0 0.0
2014-Apr-21 10:32N 53°36' E 008°31'0 0.0
2014-Apr-21 09:32N 53°36' E 008°31'0 0.0
2014-Apr-21 08:32N 53°36' E 008°31'0 0.0
2014-Apr-21 07:32N 53°36' E 008°31'0 0.0
2014-Apr-21 06:32N 53°36' E 008°31'0 0.0
2014-Apr-21 05:32N 53°36' E 008°31'0 0.0
2014-Apr-21 04:32N 53°36' E 008°31'2 1.8
2014-Apr-21 03:33N 53°37' E 008°29'1312.9
2014-Apr-21 02:33N 53°45' E 008°12'1413.7
2014-Apr-21 01:33N 53°52' E 007°52'3 2.9
2014-Apr-21 00:33N 53°55' E 007°53'0 0.0
2014-Apr-20 23:33N 53°55' E 007°53'0 0.1
2014-Apr-20 22:33N 53°55' E 007°53'0 0.1
2014-Apr-20 21:33N 53°55' E 007°52'0 0.0
2014-Apr-20 20:33N 53°55' E 007°52'0 0.0
2014-Apr-20 19:33N 53°55' E 007°52'0 0.0
2014-Apr-20 18:30N 53°55' E 007°52'0 0.0
2014-Apr-20 17:33N 53°55' E 007°52'0 0.0
2014-Apr-20 16:30N 53°55' E 007°52'0 0.0
2014-Apr-20 15:33N 53°55' E 007°52'0 0.0
2014-Apr-20 14:33N 53°55' E 007°52'0 0.2
2014-Apr-20 13:30N 53°55' E 007°53'0 0.1
2014-Apr-20 12:33N 53°55' E 007°53'0 0.0
2014-Apr-20 11:33N 53°55' E 007°53'0 0.0
2014-Apr-20 10:33N 53°55' E 007°53'0 0.2
2014-Apr-20 09:33N 53°55' E 007°52'0 0.1
2014-Apr-20 08:33N 53°55' E 007°52'0 0.0
2014-Apr-20 07:33N 53°55' E 007°52'0 0.0
2014-Apr-20 06:33N 53°55' E 007°52'0 0.0
2014-Apr-20 05:33N 53°55' E 007°52'0 0.0
2014-Apr-20 04:33N 53°55' E 007°52'0 0.0
2014-Apr-20 03:33N 53°55' E 007°52'0 0.1
2014-Apr-20 02:33N 53°55' E 007°52'0 0.1
2014-Apr-20 01:33N 53°55' E 007°53'0 0.1
2014-Apr-20 00:33N 53°55' E 007°53'0 0.0
2014-Apr-19 23:33N 53°55' E 007°53'0 0.0
2014-Apr-19 22:33N 53°55' E 007°53'0 0.2
2014-Apr-19 21:33N 53°55' E 007°53'0 0.1
2014-Apr-19 20:33N 53°55' E 007°52'0 0.0
2014-Apr-19 19:33N 53°55' E 007°52'0 0.0
2014-Apr-19 18:33N 53°55' E 007°52'0 0.0
2014-Apr-19 17:33N 53°55' E 007°52'0 0.0
2014-Apr-19 16:33N 53°55' E 007°52'0 0.0
2014-Apr-19 15:33N 53°55' E 007°52'0 0.1
2014-Apr-19 14:33N 53°55' E 007°52'0 0.1
2014-Apr-19 13:33N 53°55' E 007°53'0 0.1
2014-Apr-19 12:33N 53°55' E 007°53'0 0.0
2014-Apr-19 11:33N 53°55' E 007°53'0 0.0
2014-Apr-19 10:33N 53°55' E 007°53'0 0.0
2014-Apr-19 09:33N 53°55' E 007°53'0 0.2
2014-Apr-19 08:33N 53°55' E 007°52'0 0.1
2014-Apr-19 07:33N 53°55' E 007°52'0 0.0
2014-Apr-19 06:27N 53°55' E 007°52'0 0.0
2014-Apr-19 05:30N 53°55' E 007°52'0 0.0
2014-Apr-19 04:33N 53°55' E 007°52'0 0.0
2014-Apr-19 03:33N 53°55' E 007°52'0 0.1
2014-Apr-19 02:33N 53°55' E 007°52'0 0.1
2014-Apr-19 01:33N 53°55' E 007°52'0 0.2
2014-Apr-19 00:33N 53°55' E 007°53'0 0.1
2014-Apr-18 23:33N 53°55' E 007°53'0 0.0
2014-Apr-18 22:33N 53°55' E 007°53'0 0.0
2014-Apr-18 21:33N 53°55' E 007°53'0 0.2
2014-Apr-18 20:33N 53°55' E 007°53'0 0.0
2014-Apr-18 19:33N 53°55' E 007°53'0 0.0
2014-Apr-18 18:33N 53°55' E 007°53'0 0.1
2014-Apr-18 17:33N 53°55' E 007°52'3 3.4
2014-Apr-18 16:33N 53°56' E 007°47'1111.2
2014-Apr-18 15:33N 53°54' E 007°28'1211.6
2014-Apr-18 14:33N 53°51' E 007°09'1211.8
2014-Apr-18 13:32N 53°49' E 006°49'1412.1
2014-Apr-18 12:20N 53°46' E 006°25'1012.5
2014-Apr-18 11:33N 53°43' E 006°09'1312.8
2014-Apr-18 10:33N 53°39' E 005°49'1312.9
2014-Apr-18 09:33N 53°35' E 005°28'1313.2
2014-Apr-18 08:34N 53°31' E 005°07'1313.2
2014-Apr-18 07:33N 53°26' E 004°46'1212.2
2014-Apr-18 06:33N 53°15' E 004°37'1312.9
2014-Apr-18 05:33N 53°04' E 004°26'1312.9
2014-Apr-18 04:33N 52°52' E 004°16'1312.7
2014-Apr-18 03:34N 52°43' E 004°02'1312.6
2014-Apr-18 02:33N 52°37' E 003°43'5811.7
2014-Apr-17 21:33N 52°01' E 002°28'1311.2
2014-Apr-17 20:23N 51°53' E 002°11'1012.0
2014-Apr-17 19:33N 51°49' E 001°56'1010.0
2014-Apr-17 18:33N 51°51' E 001°40'1110.7
2014-Apr-17 17:33N 51°56' E 001°25'4 4.5
2014-Apr-17 16:33N 51°57' E 001°18'0 0.0
2014-Apr-17 15:32N 51°57' E 001°18'0 0.0
2014-Apr-17 14:32N 51°57' E 001°18'0 0.0
2014-Apr-17 13:32N 51°57' E 001°18'0 0.0
2014-Apr-17 12:32N 51°57' E 001°18'0 0.0
2014-Apr-17 11:32N 51°57' E 001°18'0 0.0
2014-Apr-17 10:32N 51°57' E 001°18'0 0.0
2014-Apr-17 09:32N 51°57' E 001°18'0 0.0
2014-Apr-17 08:32N 51°57' E 001°18'0 0.0
2014-Apr-17 07:32N 51°57' E 001°18'0 0.0
2014-Apr-17 06:32N 51°57' E 001°18'0 0.0
2014-Apr-17 05:32N 51°57' E 001°18'0 0.0
2014-Apr-17 04:23N 51°57' E 001°18'0 0.0
2014-Apr-17 03:33N 51°57' E 001°18'0 0.0
2014-Apr-17 02:33N 51°57' E 001°18'0 0.0
2014-Apr-17 01:33N 51°57' E 001°18'0 0.0
2014-Apr-17 00:33N 51°57' E 001°18'0 0.0
2014-Apr-16 23:34N 51°57' E 001°18'0 0.0
2014-Apr-16 22:33N 51°57' E 001°18'0 0.0
2014-Apr-16 21:33N 51°57' E 001°18'0 0.2
2014-Apr-16 20:33N 51°57' E 001°18'1010.1
2014-Apr-16 19:33N 51°54' E 001°34'7 7.1
2014-Apr-16 18:33N 51°51' E 001°44'9 9.3
2014-Apr-16 17:33N 51°44' E 001°53'2 2.0
2014-Apr-16 16:33N 51°42' E 001°52'2 2.2
2014-Apr-16 15:32N 51°43' E 001°55'1 1.4
2014-Apr-16 14:33N 51°42' E 001°54'4 4.3
2014-Apr-16 13:33N 51°38' E 001°51'9 8.6
2014-Apr-16 12:32N 51°30' E 001°47'8 8.3
2014-Apr-16 11:33N 51°22' E 001°43'7 7.6
2014-Apr-16 10:33N 51°15' E 001°39'6 5.6
2014-Apr-16 09:34N 51°09' E 001°38'7 7.3
2014-Apr-16 08:33N 51°03' E 001°34'1010.4
2014-Apr-16 07:33N 50°54' E 001°24'1210.9
2014-Apr-16 06:27N 50°43' E 001°19'2211.4
2014-Apr-16 04:32N 50°28' E 000°53'1211.8
2014-Apr-16 03:31N 50°25' E 000°35'1111.6
2014-Apr-16 02:33N 50°22' E 000°18'4912.3
2014-Apr-15 22:33N 50°08' W 000°55'1515.2
2014-Apr-15 21:33N 50°03' W 001°18'  

Dump ship's entire track history

sailing weather and tide predictions

Seago Piraeus — OXVD2 — position and weather